createdAt,value
2023-04-23T00:00:19.376Z,7.69
2023-04-23T00:02:51.147Z,7.70
2023-04-23T00:05:20.358Z,7.71
2023-04-23T00:07:49.114Z,7.70
2023-04-23T00:10:17.286Z,7.68
2023-04-23T00:12:46.100Z,7.65
2023-04-23T00:15:15.110Z,7.61
2023-04-23T00:17:43.510Z,7.57
2023-04-23T00:20:11.969Z,7.52
2023-04-23T00:22:41.732Z,7.45
2023-04-23T00:25:10.587Z,7.41
2023-04-23T00:27:38.947Z,7.41
2023-04-23T00:30:09.624Z,7.46
2023-04-23T00:32:38.398Z,7.51
2023-04-23T00:35:07.326Z,7.58
2023-04-23T00:37:35.570Z,7.67
2023-04-23T00:40:04.900Z,7.72
2023-04-23T00:42:33.796Z,7.75
2023-04-23T00:45:02.529Z,7.77
2023-04-23T00:47:31.504Z,7.78
2023-04-23T00:50:01.395Z,7.77
2023-04-23T00:52:30.070Z,7.75
2023-04-23T00:54:59.024Z,7.73
2023-04-23T00:57:27.836Z,7.71
2023-04-23T00:59:58.529Z,7.68
2023-04-23T01:02:28.284Z,7.66
2023-04-23T01:04:56.546Z,7.63
2023-04-23T01:07:26.375Z,7.59
2023-04-23T01:09:54.537Z,7.55
2023-04-23T01:12:23.129Z,7.54
2023-04-23T01:14:51.595Z,7.53
2023-04-23T01:17:19.870Z,7.52
2023-04-23T01:19:48.294Z,7.49
2023-04-23T01:22:17.141Z,7.44
2023-04-23T01:24:45.685Z,7.39
2023-04-23T01:27:13.824Z,7.34
2023-04-23T01:29:42.025Z,7.27
2023-04-23T01:32:10.250Z,7.21
2023-04-23T01:34:40.252Z,7.18
2023-04-23T01:37:09.530Z,7.12
2023-04-23T01:39:37.747Z,7.07
2023-04-23T01:42:07.805Z,7.05
2023-04-23T01:44:36.302Z,7.02
2023-04-23T01:47:06.843Z,7.01
2023-04-23T01:49:35.549Z,7.04
2023-04-23T01:52:04.416Z,7.02
2023-04-23T01:54:32.595Z,7.00
2023-04-23T01:57:01.762Z,6.98
2023-04-23T01:59:30.065Z,6.93
2023-04-23T02:01:58.469Z,6.89
2023-04-23T02:04:26.891Z,6.84
2023-04-23T02:06:56.112Z,6.82
2023-04-23T02:09:24.399Z,6.78
2023-04-23T02:11:52.558Z,6.76
2023-04-23T02:14:21.022Z,6.74
2023-04-23T02:16:49.954Z,6.71
2023-04-23T02:19:18.833Z,6.69
2023-04-23T02:21:47.071Z,6.66
2023-04-23T02:24:15.271Z,6.61
2023-04-23T02:26:44.143Z,6.54
2023-04-23T02:29:12.329Z,6.47
2023-04-23T02:31:40.816Z,6.38
2023-04-23T02:34:12.057Z,6.33
2023-04-23T02:36:40.405Z,6.30
2023-04-23T02:39:08.781Z,6.29
2023-04-23T02:41:38.168Z,6.28
2023-04-23T02:44:08.161Z,6.29
2023-04-23T02:46:37.819Z,6.30
2023-04-23T02:49:07.015Z,6.31
2023-04-23T02:51:35.400Z,6.31
2023-04-23T02:54:04.288Z,6.30
2023-04-23T02:56:32.656Z,6.28
2023-04-23T02:59:01.879Z,6.26
2023-04-23T03:01:30.526Z,6.24
2023-04-23T03:03:59.133Z,6.22
2023-04-23T03:06:27.638Z,6.21
2023-04-23T03:08:56.438Z,6.18
2023-04-23T03:11:24.712Z,6.16
2023-04-23T03:13:53.138Z,6.17
2023-04-23T03:16:21.397Z,6.20
2023-04-23T03:18:50.046Z,6.26
2023-04-23T03:21:18.322Z,6.37
2023-04-23T03:23:46.624Z,6.46
2023-04-23T03:26:14.938Z,6.52
2023-04-23T03:28:43.527Z,6.60
2023-04-23T03:31:12.139Z,6.74
2023-04-23T03:33:40.514Z,6.87
2023-04-23T03:36:08.791Z,6.98
2023-04-23T03:38:37.167Z,7.11
2023-04-23T03:41:06.258Z,7.27
2023-04-23T03:43:34.535Z,7.46
2023-04-23T03:46:17.308Z,7.68
2023-04-23T03:48:45.641Z,7.86
2023-04-23T03:51:19.102Z,8.02
2023-04-23T03:53:49.753Z,8.19
2023-04-23T03:56:36.888Z,8.35
2023-04-23T03:59:13.571Z,8.47
2023-04-23T04:01:42.950Z,8.66
2023-04-23T04:04:11.521Z,8.94
2023-04-23T04:06:40.920Z,9.24
2023-04-23T04:09:09.397Z,9.55
2023-04-23T04:11:37.890Z,9.88
2023-04-23T04:14:06.246Z,10.22
2023-04-23T04:16:34.446Z,10.54
2023-04-23T04:19:03.058Z,10.84
2023-04-23T04:21:32.537Z,11.14
2023-04-23T04:24:04.957Z,11.35
2023-04-23T04:26:34.609Z,11.55
2023-04-23T04:29:02.945Z,11.69
2023-04-23T04:31:32.491Z,11.83
2023-04-23T04:34:01.005Z,11.96
2023-04-23T04:36:30.093Z,12.08
2023-04-23T04:38:58.889Z,12.27
2023-04-23T04:41:27.847Z,12.51
2023-04-23T04:43:56.184Z,12.77
2023-04-23T04:46:29.319Z,12.98
2023-04-23T04:48:57.792Z,13.11
2023-04-23T04:51:27.236Z,13.19
2023-04-23T04:53:55.959Z,13.26
2023-04-23T04:56:25.990Z,13.34
2023-04-23T04:58:54.358Z,13.48
2023-04-23T05:01:25.106Z,13.76
2023-04-23T05:03:53.921Z,14.16
2023-04-23T05:06:22.447Z,14.74
2023-04-23T05:08:52.757Z,15.38
2023-04-23T05:11:21.150Z,16.01
2023-04-23T05:13:49.701Z,16.58
2023-04-23T05:16:18.480Z,17.14
2023-04-23T05:18:46.912Z,17.66
2023-04-23T05:21:15.728Z,18.11
2023-04-23T05:23:44.210Z,18.41
2023-04-23T05:26:12.521Z,18.65
2023-04-23T05:28:43.315Z,18.94
2023-04-23T05:31:12.077Z,19.21
2023-04-23T05:33:49.376Z,19.53
2023-04-23T05:36:18.915Z,19.64
2023-04-23T05:38:47.366Z,19.71
2023-04-23T05:41:16.178Z,19.95
2023-04-23T05:43:46.149Z,20.28
2023-04-23T05:46:15.652Z,20.61
2023-04-23T05:48:44.003Z,20.79
2023-04-23T05:51:13.158Z,20.74
2023-04-23T05:53:48.157Z,20.42
2023-04-23T05:56:38.161Z,20.05
2023-04-23T05:59:06.521Z,19.83
2023-04-23T06:01:36.455Z,19.87
2023-04-23T06:04:05.093Z,19.94
2023-04-23T06:06:34.367Z,19.88
2023-04-23T06:09:02.657Z,19.65
2023-04-23T06:11:32.494Z,19.43
2023-04-23T06:14:01.334Z,19.01
2023-04-23T06:16:30.590Z,18.61
2023-04-23T06:18:59.252Z,18.32
2023-04-23T06:21:28.020Z,18.16
2023-04-23T06:23:57.420Z,18.07
2023-04-23T06:26:26.752Z,17.94
2023-04-23T06:28:56.840Z,17.84
2023-04-23T06:31:31.199Z,17.81
2023-04-23T06:33:59.713Z,17.80
2023-04-23T06:36:32.603Z,17.72
2023-04-23T06:39:01.886Z,17.66
2023-04-23T06:41:30.667Z,17.63
2023-04-23T06:44:10.023Z,17.59
2023-04-23T06:46:43.016Z,17.55
2023-04-23T06:49:11.384Z,17.51
2023-04-23T06:51:40.424Z,17.48
2023-04-23T06:54:09.048Z,17.43
2023-04-23T06:56:37.967Z,17.41
2023-04-23T06:59:10.507Z,17.47
2023-04-23T07:01:46.877Z,17.63
2023-04-23T07:04:16.130Z,17.80
2023-04-23T07:06:44.526Z,18.00
2023-04-23T07:09:13.159Z,18.14
2023-04-23T07:11:41.653Z,18.22
2023-04-23T07:14:10.569Z,18.27
2023-04-23T07:16:40.926Z,18.37
2023-04-23T07:19:10.523Z,18.52
2023-04-23T07:21:44.402Z,18.68
2023-04-23T07:24:17.146Z,18.94
2023-04-23T07:26:49.099Z,19.26
2023-04-23T07:29:18.597Z,19.64
2023-04-23T07:31:52.145Z,19.99
2023-04-23T07:34:20.553Z,20.36
2023-04-23T07:36:49.197Z,20.77
2023-04-23T07:44:08.292Z,21.96
2023-04-23T07:46:37.033Z,22.29
2023-04-23T07:49:05.921Z,22.50
2023-04-23T07:51:36.336Z,22.57
2023-04-23T07:54:04.941Z,22.52
2023-04-23T07:56:38.603Z,22.58
2023-04-23T07:59:07.072Z,22.54
2023-04-23T08:01:36.119Z,22.56
2023-04-23T08:04:04.785Z,22.59
2023-04-23T08:06:36.001Z,22.64
2023-04-23T08:09:07.495Z,22.78
2023-04-23T08:11:36.216Z,23.03
2023-04-23T08:14:06.994Z,23.43
2023-04-23T08:16:38.037Z,23.90
2023-04-23T08:19:07.319Z,24.41
2023-04-23T08:21:37.544Z,24.73
2023-04-23T08:24:08.284Z,24.99
2023-04-23T08:26:36.808Z,25.28
2023-04-23T08:29:06.311Z,25.57
2023-04-23T08:31:34.529Z,25.80
2023-04-23T08:34:03.785Z,26.06
2023-04-23T08:36:32.801Z,26.25
2023-04-23T08:39:02.082Z,26.36
2023-04-23T08:41:39.925Z,26.55
2023-04-23T08:44:17.728Z,26.83
2023-04-23T08:46:46.057Z,27.08
2023-04-23T08:49:17.830Z,27.24
2023-04-23T08:51:55.796Z,27.42
2023-04-23T08:54:28.864Z,27.41
2023-04-23T08:57:01.084Z,27.32
2023-04-23T08:59:34.347Z,27.34
2023-04-23T09:02:10.202Z,27.16
2023-04-23T09:04:39.257Z,26.97
2023-04-23T09:07:11.759Z,26.73
2023-04-23T09:09:41.544Z,26.43
2023-04-23T09:12:10.251Z,26.18
2023-04-23T09:14:38.630Z,26.20
2023-04-23T09:17:07.901Z,26.50
2023-04-23T09:19:37.389Z,26.86
2023-04-23T09:22:05.625Z,27.05
2023-04-23T09:24:34.464Z,26.86
2023-04-23T09:27:04.112Z,26.64
2023-04-23T09:29:32.346Z,26.48
2023-04-23T09:32:07.753Z,26.56
2023-04-23T09:34:40.368Z,26.86
2023-04-23T09:37:10.595Z,27.20
2023-04-23T09:39:40.740Z,27.44
2023-04-23T09:42:11.441Z,27.60
2023-04-23T09:44:40.442Z,27.66
2023-04-23T09:47:14.688Z,27.65
2023-04-23T09:49:48.573Z,27.72
2023-04-23T09:52:17.218Z,27.81
2023-04-23T09:54:46.899Z,27.91
2023-04-23T09:57:15.396Z,27.86
2023-04-23T09:59:47.883Z,27.75
2023-04-23T10:02:19.399Z,27.64
2023-04-23T10:04:52.631Z,27.67
2023-04-23T10:07:35.496Z,27.82
2023-04-23T10:10:08.128Z,27.87
2023-04-23T10:12:53.672Z,27.94
2023-04-23T10:15:33.807Z,28.07
2023-04-23T10:18:02.144Z,28.24
2023-04-23T10:20:31.206Z,28.38
2023-04-23T10:22:59.692Z,28.15
2023-04-23T10:25:27.902Z,27.78
2023-04-23T10:27:56.670Z,27.56
2023-04-23T10:30:24.956Z,27.48
2023-04-23T10:32:53.377Z,27.61
2023-04-23T10:35:21.771Z,27.65
2023-04-23T10:37:51.493Z,27.74
2023-04-23T10:40:22.246Z,27.73
2023-04-23T10:42:50.608Z,27.72
2023-04-23T10:45:24.715Z,27.60
2023-04-23T10:47:57.579Z,27.60
2023-04-23T10:50:27.383Z,27.58
2023-04-23T10:52:57.368Z,27.55
2023-04-23T10:55:27.961Z,27.46
2023-04-23T10:58:04.109Z,27.37
2023-04-23T11:00:42.099Z,27.28
2023-04-23T11:03:38.002Z,27.39
2023-04-23T11:06:37.373Z,27.47
2023-04-23T11:09:48.967Z,27.44
2023-04-23T11:12:20.681Z,27.35
2023-04-23T11:14:52.145Z,27.26
2023-04-23T11:17:32.670Z,27.10
2023-04-23T11:20:05.088Z,26.91
2023-04-23T11:22:37.867Z,26.87
2023-04-23T11:25:13.784Z,26.84
2023-04-23T11:27:43.819Z,26.67
2023-04-23T11:30:21.092Z,26.41
2023-04-23T11:32:51.115Z,26.24
2023-04-23T11:35:21.349Z,26.16
2023-04-23T11:37:49.899Z,26.16
2023-04-23T11:40:20.412Z,26.10
2023-04-23T11:42:51.770Z,26.03
2023-04-23T11:45:24.149Z,25.86
2023-04-23T11:47:56.156Z,25.70
2023-04-23T11:50:27.116Z,25.51
2023-04-23T11:52:55.569Z,25.27
2023-04-23T11:55:24.029Z,25.05
2023-04-23T11:57:52.678Z,24.87
2023-04-23T12:00:23.079Z,24.61
2023-04-23T12:02:58.977Z,24.47
2023-04-23T12:05:29.656Z,24.36
2023-04-23T12:08:08.880Z,24.18
2023-04-23T12:10:49.376Z,23.80
2023-04-23T12:13:19.017Z,23.42
2023-04-23T12:15:48.941Z,23.18
2023-04-23T12:18:17.839Z,22.95
2023-04-23T12:20:46.351Z,22.64
2023-04-23T12:23:14.822Z,22.42
2023-04-23T12:25:46.814Z,22.29
2023-04-23T12:28:15.203Z,22.12
2023-04-23T12:30:44.441Z,22.00
2023-04-23T12:33:12.776Z,21.92
2023-04-23T12:35:49.602Z,21.75
2023-04-23T12:38:26.647Z,21.58
2023-04-23T12:40:58.344Z,21.38
2023-04-23T12:43:26.644Z,21.14
2023-04-23T12:45:56.375Z,20.76
2023-04-23T12:48:24.956Z,20.15
2023-04-23T12:50:55.766Z,19.33
2023-04-23T12:53:24.196Z,18.47
2023-04-23T12:55:52.598Z,17.77
2023-04-23T12:58:20.923Z,17.16
2023-04-23T13:00:58.072Z,16.74
2023-04-23T13:03:28.777Z,16.43
2023-04-23T13:05:57.803Z,16.16
2023-04-23T13:08:26.111Z,15.92
2023-04-23T13:10:54.515Z,15.69
2023-04-23T13:13:24.107Z,15.52
2023-04-23T13:15:52.363Z,15.36
2023-04-23T13:18:24.540Z,15.20
2023-04-23T13:20:52.744Z,15.02
2023-04-23T13:23:23.252Z,14.90
2023-04-23T13:25:51.521Z,14.79
2023-04-23T13:28:21.078Z,14.69
2023-04-23T13:30:49.492Z,14.55
2023-04-23T13:33:18.033Z,14.41
2023-04-23T13:35:46.287Z,14.34
2023-04-23T13:38:14.702Z,14.27
2023-04-23T13:40:43.445Z,14.24
2023-04-23T13:43:11.826Z,14.21
2023-04-23T13:45:40.149Z,14.15
2023-04-23T13:48:08.577Z,14.09
2023-04-23T13:50:36.994Z,14.06
2023-04-23T13:53:05.739Z,14.04
2023-04-23T13:55:34.926Z,14.03
2023-04-23T13:58:07.090Z,14.03
2023-04-23T14:00:38.306Z,14.08
2023-04-23T14:03:06.864Z,14.12
2023-04-23T14:05:35.214Z,14.17
2023-04-23T14:08:03.793Z,14.23
2023-04-23T14:10:33.081Z,14.32
2023-04-23T14:13:03.158Z,14.42
2023-04-23T14:15:31.596Z,14.55
2023-04-23T14:18:00.241Z,14.66
2023-04-23T14:20:28.493Z,14.78
2023-04-23T14:22:58.593Z,14.88
2023-04-23T14:25:40.719Z,14.99
2023-04-23T14:28:30.244Z,15.07
2023-04-23T14:30:59.236Z,15.17
2023-04-23T14:33:27.552Z,15.24
2023-04-23T14:35:55.905Z,15.30
2023-04-23T14:38:23.139Z,15.37
2023-04-23T14:40:50.126Z,15.43
2023-04-23T14:43:17.149Z,15.50
2023-04-23T14:45:44.491Z,15.58
2023-04-23T14:48:11.626Z,15.66
2023-04-23T14:50:38.722Z,15.72
2023-04-23T14:53:07.966Z,15.78
2023-04-23T14:55:34.974Z,15.85
2023-04-23T14:58:02.016Z,15.90
2023-04-23T15:00:29.201Z,15.94
2023-04-23T15:02:56.989Z,15.97
2023-04-23T15:05:24.488Z,15.99
2023-04-23T15:07:53.743Z,16.00
2023-04-23T15:10:23.180Z,16.01
2023-04-23T15:12:55.329Z,16.02
2023-04-23T15:15:41.144Z,16.00
2023-04-23T15:18:13.788Z,15.99
2023-04-23T15:20:41.534Z,16.00
2023-04-23T15:23:09.520Z,16.01
2023-04-23T15:25:37.202Z,16.02
2023-04-23T15:28:04.900Z,16.04
2023-04-23T15:30:31.909Z,16.06
2023-04-23T15:32:59.201Z,16.06
2023-04-23T15:35:26.919Z,16.05
2023-04-23T15:37:54.583Z,16.06
2023-04-23T15:40:21.756Z,16.06
2023-04-23T15:42:50.189Z,16.06
2023-04-23T15:45:17.340Z,16.04
2023-04-23T15:47:44.554Z,16.03
2023-04-23T15:50:11.984Z,16.02
2023-04-23T15:52:39.686Z,16.02
2023-04-23T15:55:08.175Z,16.01
2023-04-23T15:57:35.108Z,16.02
2023-04-23T16:00:02.276Z,16.00
2023-04-23T16:02:40.634Z,15.98
2023-04-23T16:05:08.142Z,15.96
2023-04-23T16:07:35.131Z,15.93
2023-04-23T16:10:02.639Z,15.89
2023-04-23T16:12:29.794Z,15.83
2023-04-23T16:14:56.965Z,15.81
2023-04-23T16:17:25.223Z,15.77
2023-04-23T16:19:56.765Z,15.71
2023-04-23T16:22:26.338Z,15.65
2023-04-23T16:24:54.167Z,15.59
2023-04-23T16:27:21.508Z,15.53
2023-04-23T16:29:48.589Z,15.46
2023-04-23T16:32:15.643Z,15.38
2023-04-23T16:34:43.047Z,15.31
2023-04-23T16:37:16.076Z,15.25
2023-04-23T16:39:44.164Z,15.18
2023-04-23T16:42:11.798Z,15.09
2023-04-23T16:44:39.292Z,15.01
2023-04-23T16:47:06.848Z,14.94
2023-04-23T16:49:34.013Z,14.85
2023-04-23T16:52:02.343Z,14.78
2023-04-23T16:54:30.920Z,14.72
2023-04-23T16:56:58.548Z,14.66
2023-04-23T16:59:25.854Z,14.60
2023-04-23T17:01:53.421Z,14.54
2023-04-23T17:04:22.352Z,14.48
2023-04-23T17:06:49.848Z,14.42
2023-04-23T17:09:17.388Z,14.37
2023-04-23T17:11:44.558Z,14.32
2023-04-23T17:14:12.548Z,14.28
2023-04-23T17:16:39.922Z,14.24
2023-04-23T17:19:07.172Z,14.21
2023-04-23T17:21:34.318Z,14.17
2023-04-23T17:24:01.909Z,14.11
2023-04-23T17:26:31.753Z,14.07
2023-04-23T17:29:00.759Z,14.02
2023-04-23T17:31:28.181Z,13.98
2023-04-23T17:33:56.902Z,13.95
2023-04-23T17:36:26.567Z,13.91
2023-04-23T17:38:55.620Z,13.87
2023-04-23T17:44:20.200Z,13.78
2023-04-23T17:46:48.328Z,13.76
2023-04-23T17:49:28.555Z,13.73
2023-04-23T17:58:04.661Z,13.61
2023-04-23T18:00:41.148Z,13.59
2023-04-23T18:03:10.021Z,13.56
2023-04-23T18:05:40.453Z,13.51
2023-04-23T18:08:27.477Z,13.45
2023-04-23T18:10:55.796Z,13.39
2023-04-23T18:13:23.186Z,13.32
2023-04-23T18:15:50.670Z,13.27
2023-04-23T18:18:24.917Z,13.23
2023-04-23T18:20:53.716Z,13.21
2023-04-23T18:23:23.840Z,13.22
2023-04-23T18:25:52.847Z,13.22
2023-04-23T18:28:20.068Z,13.19
2023-04-23T18:30:47.336Z,13.15
2023-04-23T18:33:43.769Z,13.14
2023-04-23T18:36:22.322Z,13.11
2023-04-23T18:38:50.265Z,13.07
2023-04-23T18:41:18.099Z,13.04
2023-04-23T18:43:45.525Z,13.05
2023-04-23T18:46:12.916Z,13.06
2023-04-23T18:48:55.830Z,13.07
2023-04-23T18:51:33.384Z,13.05
2023-04-23T18:54:02.282Z,13.07
2023-04-23T18:56:29.679Z,13.06
2023-04-23T18:58:56.929Z,13.03
2023-04-23T19:01:28.354Z,12.98
2023-04-23T19:04:01.245Z,12.90
2023-04-23T19:06:28.319Z,12.82
2023-04-23T19:08:56.241Z,12.76
2023-04-23T19:11:23.448Z,12.72
2023-04-23T19:13:50.517Z,12.70
2023-04-23T19:16:20.850Z,12.69
2023-04-23T19:18:48.368Z,12.68
2023-04-23T19:21:16.034Z,12.68
2023-04-23T19:23:43.587Z,12.63
2023-04-23T19:26:10.778Z,12.57
2023-04-23T19:28:38.069Z,12.53
2023-04-23T19:31:05.377Z,12.49
2023-04-23T19:33:32.618Z,12.46
2023-04-23T19:35:59.978Z,12.43
2023-04-23T19:38:27.267Z,12.43
2023-04-23T19:40:55.423Z,12.43
2023-04-23T19:43:23.479Z,12.42
2023-04-23T19:45:50.904Z,12.41
2023-04-23T19:48:21.300Z,12.42
2023-04-23T19:50:49.590Z,12.45
2023-04-23T19:53:16.854Z,12.45
2023-04-23T19:58:43.142Z,12.41
2023-04-23T20:01:10.371Z,12.33
2023-04-23T20:03:39.180Z,12.28
2023-04-23T20:06:06.462Z,12.22
2023-04-23T20:08:42.135Z,12.17
2023-04-23T20:11:10.822Z,12.10
2023-04-23T20:13:37.914Z,12.02
2023-04-23T20:16:04.762Z,11.97
2023-04-23T20:18:35.236Z,11.91
2023-04-23T20:21:02.283Z,11.85
2023-04-23T20:23:29.632Z,11.78
2023-04-23T20:25:56.501Z,11.72
2023-04-23T20:28:23.442Z,11.66
2023-04-23T20:30:51.798Z,11.59
2023-04-23T20:33:19.042Z,11.55
2023-04-23T20:35:45.971Z,11.51
2023-04-23T20:38:18.523Z,11.44
2023-04-23T20:40:47.822Z,11.37
2023-04-23T20:43:14.670Z,11.31
2023-04-23T20:45:42.652Z,11.26
2023-04-23T20:48:09.572Z,11.17
2023-04-23T20:50:37.416Z,11.13
2023-04-23T20:53:04.274Z,11.10
2023-04-23T20:55:31.811Z,11.03
2023-04-23T20:57:59.058Z,10.95
2023-04-23T21:00:27.340Z,10.88
2023-04-23T21:02:54.507Z,10.81
2023-04-23T21:05:21.568Z,10.74
2023-04-23T21:07:50.208Z,10.68
2023-04-23T21:10:17.182Z,10.64
2023-04-23T21:12:44.465Z,10.60
2023-04-23T21:15:12.845Z,10.54
2023-04-23T21:17:40.320Z,10.48
2023-04-23T21:20:09.128Z,10.43
2023-04-23T21:22:36.484Z,10.39
2023-04-23T21:25:04.117Z,10.35
2023-04-23T21:27:31.052Z,10.31
2023-04-23T21:30:01.611Z,10.28
2023-04-23T21:32:29.037Z,10.23
2023-04-23T21:34:55.918Z,10.12
2023-04-23T21:37:22.752Z,10.04
2023-04-23T21:39:49.733Z,9.99
2023-04-23T21:42:16.542Z,9.93
2023-04-23T21:44:43.273Z,9.89
2023-04-23T21:47:10.145Z,9.88
2023-04-23T21:49:37.092Z,9.90
2023-04-23T21:52:03.956Z,9.92
2023-04-23T21:54:31.948Z,9.92
2023-04-23T21:56:58.846Z,9.90
2023-04-23T21:59:25.937Z,9.86
2023-04-23T22:01:52.876Z,9.81
2023-04-23T22:04:21.987Z,9.75
2023-04-23T22:06:50.763Z,9.70
2023-04-23T22:09:18.185Z,9.64
2023-04-23T22:12:00.773Z,9.59
2023-04-23T22:14:29.151Z,9.53
2023-04-23T22:16:58.139Z,9.48
2023-04-23T22:19:25.662Z,9.43
2023-04-23T22:21:53.258Z,9.39
2023-04-23T22:24:20.209Z,9.37
2023-04-23T22:26:47.132Z,9.34
2023-04-23T22:29:13.881Z,9.30
2023-04-23T22:31:40.881Z,9.27
2023-04-23T22:34:07.680Z,9.21
2023-04-23T22:36:35.848Z,9.13
2023-04-23T22:39:04.136Z,9.06
2023-04-23T22:41:33.768Z,9.02
2023-04-23T22:44:00.878Z,8.99
2023-04-23T22:46:28.193Z,8.98
2023-04-23T22:48:54.959Z,8.96
2023-04-23T22:51:21.748Z,8.94
2023-04-23T22:53:48.594Z,8.89
2023-04-23T22:56:15.412Z,8.85
2023-04-23T22:58:42.177Z,8.86
2023-04-23T23:01:09.325Z,8.89
2023-04-23T23:03:36.702Z,8.91
2023-04-23T23:06:04.433Z,8.90
2023-04-23T23:08:31.636Z,8.88
2023-04-23T23:10:58.440Z,8.85
2023-04-23T23:13:25.771Z,8.80
2023-04-23T23:15:52.678Z,8.73
2023-04-23T23:18:19.574Z,8.65
2023-04-23T23:20:46.560Z,8.57
2023-04-23T23:23:13.440Z,8.52
2023-04-23T23:25:40.457Z,8.51
2023-04-23T23:28:07.430Z,8.53
2023-04-23T23:30:34.279Z,8.55
2023-04-23T23:33:01.287Z,8.54
2023-04-23T23:35:28.554Z,8.52
2023-04-23T23:37:56.218Z,8.50
2023-04-23T23:40:23.158Z,8.47
2023-04-23T23:42:50.034Z,8.42
2023-04-23T23:45:16.836Z,8.35
2023-04-23T23:47:43.678Z,8.27
2023-04-23T23:50:10.634Z,8.21
2023-04-23T23:52:37.600Z,8.16
2023-04-23T23:55:05.005Z,8.12
2023-04-23T23:57:32.790Z,8.11
2023-04-23T23:59:59.964Z,8.11
